Time;durP1;ratioP1;P1;durP2;ratioP2;P2;SDS_P1;SDS_P2;PMS_P1;PMS_P2;Temp;Humidity;BMP_temperature;BMP_pressure;BME280_temperature;BME280_humidity;BME280_pressure;Samples;Min_cycle;Max_cycle;Signal;HPM_P1;HPM_P2
2020/12/03 00:01:05;;;;;;;55.55;37.55;;;;;;;13.56;26.97;94798.09;5073767;28;20040;-57
2020/12/03 00:03:50;;;;;;;48.47;33.72;;;;;;;13.72;27.62;94801.16;5072280;28;20502;-60
2020/12/03 00:06:45;;;;;;;64.22;41.92;;;;;;;13.69;26.89;94804.41;5073577;28;20044;-61
2020/12/03 00:09:14;;;;;;;59.55;41.00;;;;;;;13.79;26.85;94798.91;5069145;28;20066;-55
2020/12/03 00:11:45;;;;;;;59.92;40.85;;;;;;;13.51;28.10;94793.69;5073337;28;20049;-55
2020/12/03 00:14:12;;;;;;;58.17;39.72;;;;;;;13.35;27.98;94805.59;5073243;28;20044;-54
2020/12/03 00:16:40;;;;;;;60.47;40.50;;;;;;;13.50;28.32;94802.66;5073293;28;20051;-57
2020/12/03 00:19:08;;;;;;;55.08;37.58;;;;;;;13.34;28.32;94809.28;5071890;28;20577;-57
2020/12/03 00:21:48;;;;;;;57.08;38.90;;;;;;;13.41;27.90;94816.78;5073578;28;20056;-56
2020/12/03 00:24:18;;;;;;;53.03;36.65;;;;;;;13.37;28.52;94819.22;5071794;28;20763;-55
2020/12/03 00:26:46;;;;;;;55.00;37.60;;;;;;;13.35;28.12;94810.84;5073039;28;20048;-56
2020/12/03 00:29:13;;;;;;;57.25;38.42;;;;;;;13.60;28.17;94811.41;5072878;28;20404;-56
2020/12/03 00:31:43;;;;;;;53.10;36.85;;;;;;;13.54;27.72;94818.63;5073253;28;20055;-55
2020/12/03 00:34:10;;;;;;;54.67;38.10;;;;;;;13.51;27.88;94809.47;5072672;28;20048;-54
2020/12/03 00:36:38;;;;;;;51.03;35.95;;;;;;;13.47;28.26;94807.72;5072912;28;20045;-55
2020/12/03 00:39:08;;;;;;;54.35;36.53;;;;;;;13.53;28.34;94806.53;5072828;28;20142;-54
2020/12/03 00:41:35;;;;;;;51.78;36.00;;;;;;;13.57;28.01;94813.56;5072488;28;20052;-55
2020/12/03 00:44:03;;;;;;;54.33;36.13;;;;;;;13.70;28.01;94801.47;5072495;28;20049;-57
2020/12/03 00:46:31;;;;;;;53.42;35.10;;;;;;;13.66;27.85;94812.88;5071436;28;20056;-57
2020/12/03 00:48:59;;;;;;;50.70;34.80;;;;;;;13.61;27.80;94812.97;5071754;28;20118;-54
2020/12/03 00:51:26;;;;;;;48.60;31.77;;;;;;;13.65;27.31;94804.22;5071667;28;20459;-56
2020/12/03 00:53:54;;;;;;;45.97;31.70;;;;;;;13.50;28.05;94812.38;5072244;28;20040;-56
2020/12/03 00:56:22;;;;;;;46.15;30.63;;;;;;;13.60;27.77;94816.69;5071741;28;20040;-55
2020/12/03 00:58:51;;;;;;;46.58;31.63;;;;;;;13.67;27.94;94806.53;5071132;28;20450;-55
2020/12/03 01:01:19;;;;;;;44.85;29.88;;;;;;;13.61;27.74;94812.97;5072718;28;20048;-55
2020/12/03 01:03:48;;;;;;;45.65;31.42;;;;;;;13.79;26.95;94802.34;5072171;28;20055;-56
2020/12/03 01:06:17;;;;;;;48.63;32.72;;;;;;;13.60;27.15;94801.69;5072376;28;20045;-57
2020/12/03 01:08:44;;;;;;;48.65;33.80;;;;;;;13.80;27.15;94800.50;5072297;28;20062;-56
2020/12/03 01:11:11;;;;;;;47.05;32.40;;;;;;;13.56;27.59;94769.97;5072401;28;20056;-55
2020/12/03 01:13:38;;;;;;;47.97;32.10;;;;;;;13.73;27.66;94789.59;5072453;28;20059;-56
2020/12/03 01:16:05;;;;;;;50.25;31.92;;;;;;;13.61;27.65;94787.47;5072391;28;20359;-59
2020/12/03 01:18:32;;;;;;;52.05;32.60;;;;;;;13.53;27.43;94788.97;5072108;28;20063;-57
2020/12/03 01:20:59;;;;;;;50.65;33.25;;;;;;;13.46;27.95;94785.94;5072026;28;20064;-56
2020/12/03 01:23:26;;;;;;;47.38;32.20;;;;;;;13.51;28.35;94783.19;5072020;28;20505;-56
2020/12/03 01:25:53;;;;;;;51.53;34.55;;;;;;;13.51;27.41;94788.44;5072115;28;20052;-56
2020/12/03 01:28:21;;;;;;;48.58;32.97;;;;;;;13.38;27.95;94784.00;5071973;28;20052;-58
2020/12/03 01:30:48;;;;;;;50.88;33.70;;;;;;;13.50;28.37;94781.63;5072142;28;20368;-55
2020/12/03 01:33:15;;;;;;;52.70;34.25;;;;;;;13.64;27.40;94780.84;5071957;28;20362;-57
2020/12/03 01:35:42;;;;;;;50.80;33.90;;;;;;;13.67;27.64;94775.78;5072426;28;20055;-57
2020/12/03 01:38:09;;;;;;;51.13;35.72;;;;;;;13.73;27.76;94768.56;5072012;28;20467;-56
2020/12/03 01:40:37;;;;;;;49.78;34.67;;;;;;;13.56;28.20;94769.97;5071864;28;20391;-56
2020/12/03 01:43:04;;;;;;;54.20;36.17;;;;;;;13.49;28.11;94769.56;5071812;28;20057;-56
2020/12/03 01:45:58;;;;;;;53.33;36.10;;;;;;;13.61;27.43;94765.69;5071732;28;20478;-57
2020/12/03 01:48:40;;;;;;;49.35;34.90;;;;;;;13.72;27.35;94761.75;5071931;28;20056;-59
2020/12/03 01:51:22;;;;;;;50.55;33.60;;;;;;;13.55;27.96;94752.66;5071861;28;20048;-58
2020/12/03 01:53:56;;;;;;;44.17;30.58;;;;;;;13.72;26.94;94756.50;5071634;28;20048;-55
2020/12/03 01:56:50;;;;;;;44.90;30.75;;;;;;;13.80;26.55;94753.19;5072064;28;20079;-56
2020/12/03 01:59:17;;;;;;;46.78;32.45;;;;;;;13.81;27.13;94754.75;5070932;28;20435;-58
2020/12/03 02:01:45;;;;;;;45.60;32.13;;;;;;;13.70;27.72;94753.41;5071961;28;20138;-55
2020/12/03 02:04:12;;;;;;;49.22;34.05;;;;;;;13.74;26.88;94743.84;5071676;28;20055;-55
2020/12/03 02:06:41;;;;;;;47.33;31.67;;;;;;;13.56;27.77;94743.72;5070786;28;20056;-56
2020/12/03 02:09:10;;;;;;;46.50;32.90;;;;;;;13.26;27.99;94744.31;5071627;28;20056;-55
2020/12/03 02:11:39;;;;;;;47.92;32.60;;;;;;;13.55;27.23;94736.91;5071814;28;20053;-59
2020/12/03 02:14:09;;;;;;;48.05;33.50;;;;;;;13.61;26.95;94728.91;5071448;28;20053;-55
2020/12/03 02:16:42;;;;;;;45.45;31.73;;;;;;;13.61;27.57;94740.19;5071875;28;20045;-55
2020/12/03 02:19:22;;;;;;;49.92;32.60;;;;;;;13.64;27.32;94738.81;5071438;28;20052;-58
2020/12/03 02:22:01;;;;;;;51.35;34.40;;;;;;;13.35;28.29;94729.44;5071758;28;20071;-56
2020/12/03 02:24:40;;;;;;;43.33;29.83;;;;;;;13.38;27.93;94736.72;5071218;28;20082;-56
2020/12/03 02:27:12;;;;;;;48.53;33.35;;;;;;;13.18;27.81;94737.13;5071434;28;20048;-55
2020/12/03 02:29:40;;;;;;;50.15;33.65;;;;;;;13.46;27.49;94733.41;5071846;28;20056;-56
2020/12/03 02:32:07;;;;;;;43.25;29.58;;;;;;;13.40;26.56;94729.34;5072625;28;20055;-58
2020/12/03 02:34:35;;;;;;;40.03;28.85;;;;;;;13.45;26.97;94723.19;5073930;28;20059;-57
2020/12/03 02:37:02;;;;;;;42.03;27.52;;;;;;;13.39;26.48;94738.28;5075313;28;20048;-56
2020/12/03 02:39:31;;;;;;;37.75;28.52;;;;;;;13.44;27.12;94725.03;5075251;28;20052;-56
2020/12/03 02:41:59;;;;;;;39.63;27.27;;;;;;;13.21;27.27;94737.31;5075157;28;20045;-57
2020/12/03 02:44:27;;;;;;;36.50;25.95;;;;;;;13.01;27.94;94723.78;5073810;28;20063;-57
2020/12/03 02:46:54;;;;;;;35.10;24.70;;;;;;;12.78;27.52;94715.84;5065032;28;20110;-57
2020/12/03 02:49:21;;;;;;;36.30;25.50;;;;;;;13.02;27.40;94717.50;5055287;28;20053;-55
2020/12/03 02:51:48;;;;;;;34.00;25.50;;;;;;;13.11;27.18;94716.50;5055091;28;20048;-56
2020/12/03 02:54:15;;;;;;;33.45;24.90;;;;;;;13.10;26.96;94711.56;5064403;28;20080;-57
2020/12/03 02:56:42;;;;;;;33.95;24.52;;;;;;;13.15;27.33;94714.06;5075092;28;20119;-58
2020/12/03 02:59:11;;;;;;;35.53;25.83;;;;;;;13.29;26.73;94717.50;5074746;28;20048;-55
2020/12/03 03:01:38;;;;;;;32.40;24.55;;;;;;;13.13;27.42;94713.59;5075137;28;20048;-58
2020/12/03 03:04:05;;;;;;;37.15;25.65;;;;;;;13.01;27.46;94710.66;5074749;28;20052;-56
2020/12/03 03:06:36;;;;;;;34.47;25.48;;;;;;;13.22;27.62;94709.22;5074578;28;20048;-55
2020/12/03 03:09:06;;;;;;;33.72;24.63;;;;;;;13.02;28.14;94707.00;5074829;28;20048;-56
2020/12/03 03:11:34;;;;;;;37.75;26.50;;;;;;;13.10;27.75;94704.44;5074341;28;20064;-56
2020/12/03 03:14:04;;;;;;;38.90;26.30;;;;;;;12.95;27.96;94702.88;5074745;28;20057;-56
2020/12/03 03:16:31;;;;;;;38.28;27.65;;;;;;;12.94;27.28;94709.22;5074474;28;20048;-55
2020/12/03 03:18:59;;;;;;;39.45;29.10;;;;;;;12.86;27.38;94696.00;5074432;28;20047;-55
2020/12/03 03:21:27;;;;;;;35.83;26.70;;;;;;;13.09;27.50;94712.63;5074540;28;20048;-56
2020/12/03 03:23:54;;;;;;;40.67;28.08;;;;;;;13.17;26.95;94702.22;5073603;28;20079;-56
2020/12/03 03:26:21;;;;;;;36.95;27.52;;;;;;;12.88;27.37;94701.72;5074359;28;20052;-56
2020/12/03 03:28:48;;;;;;;37.17;27.90;;;;;;;13.05;27.30;94707.19;5074221;28;20052;-55
2020/12/03 03:31:17;;;;;;;37.47;28.20;;;;;;;13.32;27.31;94719.53;5074416;28;20044;-56
2020/12/03 03:33:45;;;;;;;38.28;27.08;;;;;;;12.92;28.33;94713.97;5074180;28;20048;-57
2020/12/03 03:36:12;;;;;;;37.95;27.83;;;;;;;13.21;27.94;94705.03;5074025;28;20059;-54
2020/12/03 03:38:39;;;;;;;36.95;27.02;;;;;;;13.38;27.58;94694.72;5074219;28;20367;-55
2020/12/03 03:41:06;;;;;;;38.00;27.35;;;;;;;13.13;27.87;94703.09;5073977;28;20052;-57
2020/12/03 03:43:34;;;;;;;40.60;28.85;;;;;;;13.27;27.00;94709.13;5073908;28;20048;-56
2020/12/03 03:46:01;;;;;;;39.90;28.83;;;;;;;13.02;27.46;94707.00;5073864;28;20055;-58
2020/12/03 03:48:28;;;;;;;38.97;28.13;;;;;;;12.49;28.67;94715.28;5073940;28;20052;-55
2020/12/03 03:50:55;;;;;;;42.63;29.73;;;;;;;12.53;28.03;94711.03;5073928;28;20374;-55
2020/12/03 03:53:22;;;;;;;38.55;28.60;;;;;;;12.62;28.45;94714.53;5074152;28;20056;-56
2020/12/03 03:55:50;;;;;;;40.25;28.95;;;;;;;12.93;27.70;94710.28;5073554;28;20068;-57
2020/12/03 03:58:19;;;;;;;41.00;29.02;;;;;;;12.90;27.81;94710.09;5073842;28;20752;-55
2020/12/03 04:00:47;;;;;;;36.65;27.95;;;;;;;12.98;27.84;94718.06;5073771;28;20045;-54
2020/12/03 04:03:18;;;;;;;39.15;29.02;;;;;;;12.71;28.26;94702.31;5073402;28;20044;-57
2020/12/03 04:05:48;;;;;;;41.83;28.95;;;;;;;12.79;28.02;94714.75;5070761;28;20045;-54
2020/12/03 04:08:17;;;;;;;41.78;30.38;;;;;;;12.54;28.50;94718.63;5076220;28;20055;-56
2020/12/03 04:10:45;;;;;;;41.42;29.40;;;;;;;12.88;28.54;94710.38;5076374;28;20052;-56
2020/12/03 04:13:12;;;;;;;42.53;31.30;;;;;;;12.78;28.41;94704.56;5076621;28;20226;-55
2020/12/03 04:15:39;;;;;;;42.80;29.42;;;;;;;12.77;28.66;94706.41;5076425;28;20075;-55
2020/12/03 04:18:06;;;;;;;41.42;29.00;;;;;;;12.66;29.08;94712.91;5076088;28;20055;-55
2020/12/03 04:20:34;;;;;;;41.75;29.48;;;;;;;12.76;28.54;94704.06;5076273;28;20436;-54
2020/12/03 04:23:02;;;;;;;42.90;30.45;;;;;;;12.72;28.59;94701.22;5076405;28;20036;-56
2020/12/03 04:25:29;;;;;;;39.80;29.20;;;;;;;12.71;28.17;94701.53;5076515;28;20052;-56
2020/12/03 04:27:57;;;;;;;39.47;27.98;;;;;;;12.68;28.47;94707.34;5075938;28;20041;-55
2020/12/03 04:30:24;;;;;;;42.75;28.92;;;;;;;13.03;27.92;94705.91;5076391;28;20048;-56
2020/12/03 04:32:51;;;;;;;40.83;30.77;;;;;;;13.17;27.71;94701.41;5076178;28;20055;-57
2020/12/03 04:35:19;;;;;;;45.15;33.13;;;;;;;12.61;28.43;94702.50;5076263;28;20052;-55
2020/12/03 04:37:50;;;;;;;50.80;34.13;;;;;;;12.89;27.99;94711.94;5074702;28;20041;-58
2020/12/03 04:40:27;;;;;;;44.03;31.77;;;;;;;12.63;28.24;94708.22;5076223;28;20055;-58
2020/12/03 04:42:54;;;;;;;48.03;34.63;;;;;;;12.65;28.29;94714.75;5074541;28;20052;-57
2020/12/03 04:45:43;;;;;;;46.50;32.97;;;;;;;12.44;28.30;94708.28;5086126;28;20054;-56
2020/12/03 04:48:27;;;;;;;49.53;33.88;;;;;;;12.52;28.32;94706.88;5098163;28;20331;-54
2020/12/03 04:51:16;;;;;;;52.33;36.20;;;;;;;12.75;28.01;94703.31;5098640;28;20052;-55
2020/12/03 04:53:47;;;;;;;100.00;79.65;;;;;;;12.95;27.64;94708.13;5098613;28;20047;-58
2020/12/03 04:56:28;;;;;;;91.57;61.70;;;;;;;13.46;26.86;94706.38;5097825;28;20361;-58
2020/12/03 04:59:10;;;;;;;74.78;51.63;;;;;;;12.61;28.16;94719.00;5115700;28;20442;-55
2020/12/03 05:01:52;;;;;;;73.93;55.38;;;;;;;12.76;28.14;94704.84;5115763;28;20368;-55
2020/12/03 05:04:51;;;;;;;78.97;56.20;;;;;;;12.87;27.73;94700.19;5115833;28;20051;-57
2020/12/03 05:07:22;;;;;;;78.45;58.20;;;;;;;12.74;27.63;94693.84;5101246;28;20036;-56
2020/12/03 05:09:59;;;;;;;74.05;51.30;;;;;;;12.51;27.92;94705.31;5115592;28;20050;-56
2020/12/03 05:12:42;;;;;;;65.75;47.25;;;;;;;12.66;27.69;94711.03;5098005;28;20047;-57
2020/12/03 05:15:20;;;;;;;62.33;43.75;;;;;;;12.64;27.75;94704.53;5098170;28;20674;-56
2020/12/03 05:17:51;;;;;;;60.50;44.92;;;;;;;12.69;27.51;94714.94;5115483;28;20051;-56
2020/12/03 05:20:23;;;;;;;67.95;47.65;;;;;;;12.39;27.83;94710.22;5096020;28;20059;-56
2020/12/03 05:23:13;;;;;;;70.40;48.90;;;;;;;12.20;28.53;94710.28;5075340;28;20476;-60
2020/12/03 05:25:40;;;;;;;66.60;45.67;;;;;;;12.20;28.48;94712.91;5057811;28;20332;-57
2020/12/03 05:28:27;;;;;;;65.43;46.00;;;;;;;12.07;28.99;94709.19;5090057;28;20047;-55
2020/12/03 05:30:56;;;;;;;64.07;44.58;;;;;;;12.21;28.69;94710.00;5057619;28;20075;-55
2020/12/03 05:33:23;;;;;;;71.18;48.42;;;;;;;12.59;27.56;94702.00;5077043;28;20363;-54
2020/12/03 05:35:51;;;;;;;62.38;40.50;;;;;;;12.50;27.94;94712.41;5095484;28;20044;-52
2020/12/03 05:38:19;;;;;;;65.93;46.75;;;;;;;12.13;28.44;94712.50;5095049;28;20042;-58
2020/12/03 05:41:01;;;;;;;63.38;45.10;;;;;;;12.27;28.28;94705.47;5096955;28;20063;-55
2020/12/03 05:43:29;;;;;;;53.90;37.67;;;;;;;12.52;27.57;94715.50;5115811;28;20052;-55
2020/12/03 05:45:58;;;;;;;66.30;45.00;;;;;;;12.15;28.19;94707.75;5115908;28;20048;-55
2020/12/03 05:48:25;;;;;;;75.95;52.63;;;;;;;12.45;27.98;94714.31;5096784;28;20060;-57
2020/12/03 05:50:54;;;;;;;74.50;52.25;;;;;;;13.06;26.93;94716.59;5115585;28;20414;-54
2020/12/03 05:53:28;;;;;;;94.88;64.93;;;;;;;12.50;27.74;94707.16;5115546;28;20048;-58
2020/12/03 05:56:13;;;;;;;91.68;62.60;;;;;;;12.72;27.13;94703.84;5115674;28;20442;-52
2020/12/03 05:58:40;;;;;;;91.65;65.45;;;;;;;12.64;27.63;94694.03;5114757;28;20044;-56
2020/12/03 06:01:20;;;;;;;94.20;65.90;;;;;;;12.77;27.43;94693.28;5115647;28;20054;-55
2020/12/03 06:03:59;;;;;;;84.82;59.17;;;;;;;12.34;28.03;94704.00;5115501;28;20058;-57
2020/12/03 06:06:38;;;;;;;84.82;55.85;;;;;;;12.39;27.87;94707.59;5097403;28;20044;-54
2020/12/03 06:09:11;;;;;;;82.95;57.10;;;;;;;12.46;27.63;94708.00;5119767;28;20043;-55
2020/12/03 06:11:41;;;;;;;;;;;;;;;12.20;27.83;94705.81;5101681;28;20130;-58
2020/12/03 06:14:20;;;;;;;104.70;75.55;;;;;;;12.32;28.24;94706.16;5119611;28;19911;-56
2020/12/03 06:17:09;;;;;;;91.43;63.60;;;;;;;12.40;28.08;94709.16;5118768;28;20518;-58
2020/12/03 06:19:48;;;;;;;88.00;62.75;;;;;;;13.05;27.59;94709.03;5119526;28;20058;-58
2020/12/03 06:22:34;;;;;;;97.78;69.93;;;;;;;12.06;29.05;94707.63;5092537;28;20051;-57
2020/12/03 06:25:38;;;;;;;87.45;62.97;;;;;;;12.76;28.09;94717.19;5116268;28;20043;-56
2020/12/03 06:28:22;;;;;;;78.45;56.83;;;;;;;13.12;27.61;94712.03;5118686;28;20047;-57
2020/12/03 06:31:13;;;;;;;82.25;57.60;;;;;;;13.47;26.90;94708.69;5093789;28;20052;-55
2020/12/03 06:34:19;;;;;;;78.18;58.63;;;;;;;13.90;26.85;94710.91;5078596;28;20052;-56
2020/12/03 06:36:54;;;;;;;68.20;52.17;;;;;;;14.06;26.04;94714.75;5071213;28;20049;-56
2020/12/03 06:39:26;;;;;;;69.78;53.22;;;;;;;14.15;25.96;94723.47;5080967;28;20470;-55
2020/12/03 06:42:19;;;;;;;63.78;48.67;;;;;;;14.28;25.93;94713.94;5086484;28;20058;-54
2020/12/03 06:45:42;;;;;;;65.35;48.65;;;;;;;14.77;25.50;94723.50;5076357;28;20471;-55
2020/12/03 06:48:27;;;;;;;62.72;47.88;;;;;;;14.95;25.34;94723.59;5035338;28;20064;-55
2020/12/03 06:51:20;;;;;;;68.22;50.20;;;;;;;15.36;24.83;94726.66;5098500;28;20454;-55
2020/12/03 06:54:14;;;;;;;63.83;47.45;;;;;;;15.28;24.80;94722.13;5091888;28;20048;-56
2020/12/03 06:57:09;;;;;;;61.70;46.30;;;;;;;15.31;24.71;94720.75;5078351;28;20061;-56
2020/12/03 07:00:04;;;;;;;56.50;43.45;;;;;;;15.53;24.34;94727.75;5108734;28;20051;-55
2020/12/03 07:02:43;;;;;;;54.17;42.08;;;;;;;15.67;24.31;94721.31;5050227;28;20055;-56
2020/12/03 07:05:30;;;;;;;58.88;44.83;;;;;;;15.45;24.67;94721.41;5118607;28;20055;-54
2020/12/03 07:08:22;;;;;;;62.72;47.95;;;;;;;15.91;23.57;94723.50;5117967;28;20055;-56
2020/12/03 07:10:54;;;;;;;64.82;50.92;;;;;;;16.30;23.48;94729.66;5084334;28;20059;-56
2020/12/03 07:13:36;;;;;;;63.40;46.55;;;;;;;16.13;23.62;94725.16;5118576;28;20347;-54
2020/12/03 07:16:09;;;;;;;51.08;38.40;;;;;;;16.21;23.50;94721.00;5118333;28;20063;-56
2020/12/03 07:19:04;;;;;;;37.55;28.52;;;;;;;16.27;23.09;94725.00;5101120;28;20044;-56
2020/12/03 07:22:07;;;;;;;30.92;25.33;;;;;;;16.56;22.75;94722.47;5118338;28;20450;-55
2020/12/03 07:24:36;;;;;;;37.35;30.75;;;;;;;16.25;22.81;94719.28;5100283;28;20373;-60
2020/12/03 07:27:10;;;;;;;34.40;27.50;;;;;;;16.62;22.50;94717.78;5067700;28;20067;-55
2020/12/03 07:29:52;;;;;;;34.53;27.85;;;;;;;16.85;22.59;94713.88;5097761;28;20455;-53
2020/12/03 07:32:31;;;;;;;35.03;28.50;;;;;;;16.79;22.25;94714.38;5096819;28;20048;-54
2020/12/03 07:35:21;;;;;;;39.03;32.10;;;;;;;16.88;22.24;94718.50;5097650;28;20048;-56
2020/12/03 07:38:15;;;;;;;41.20;31.50;;;;;;;17.23;22.21;94729.72;5103368;28;20344;-54
2020/12/03 07:40:42;;;;;;;;;;;;;;;17.20;22.32;94735.63;5062554;28;20051;-55
2020/12/03 07:43:38;;;;;;;36.97;30.55;;;;;;;17.13;21.88;94719.50;5099908;28;20234;-56
2020/12/03 07:46:28;;;;;;;37.45;31.60;;;;;;;17.53;22.12;94721.78;5096292;28;20055;-58
2020/12/03 07:48:57;;;;;;;34.63;28.90;;;;;;;17.12;21.75;94728.50;5081993;28;20358;-55
2020/12/03 07:51:24;;;;;;;39.75;30.52;;;;;;;17.15;22.85;94722.59;5097343;28;20048;-55
2020/12/03 07:54:21;;;;;;;38.03;29.23;;;;;;;17.14;21.99;94721.03;5097167;28;20047;-57
2020/12/03 07:56:50;;;;;;;37.22;29.17;;;;;;;17.17;22.26;94719.63;5073456;28;20048;-56
2020/12/03 07:59:28;;;;;;;38.38;29.25;;;;;;;17.64;21.93;94728.22;5097142;28;20390;-56
2020/12/03 08:02:00;;;;;;;32.35;25.13;;;;;;;17.39;21.58;94726.50;5087501;28;20067;-56
2020/12/03 08:04:37;;;;;;;33.22;26.48;;;;;;;17.73;21.81;94744.06;5077053;28;20068;-55
2020/12/03 08:07:04;;;;;;;34.53;29.40;;;;;;;17.44;21.66;94739.56;5107636;28;20052;-54
2020/12/03 08:09:59;;;;;;;32.30;27.58;;;;;;;18.04;21.48;94731.22;5099201;28;20047;-57
2020/12/03 08:12:28;;;;;;;;;;;;;;;18.02;21.09;94724.72;5114235;28;20050;-56
2020/12/03 08:15:00;;;;;;;34.95;26.65;;;;;;;18.25;21.27;94733.09;5117238;28;19915;-55
2020/12/03 08:17:28;;;;;;;33.78;28.15;;;;;;;18.24;20.88;94729.66;5083911;28;20323;-56
2020/12/03 08:20:06;;;;;;;36.67;28.20;;;;;;;17.72;21.51;94727.44;5096785;28;20063;-55
2020/12/03 08:22:40;;;;;;;35.25;28.42;;;;;;;17.93;21.34;94724.00;5096528;28;20051;-56
2020/12/03 08:25:17;;;;;;;31.58;25.67;;;;;;;18.64;21.09;94723.84;5096686;28;20055;-56
2020/12/03 08:27:58;;;;;;;34.35;24.00;;;;;;;18.19;21.11;94727.97;5096205;28;20052;-55
2020/12/03 08:30:34;;;;;;;31.63;25.17;;;;;;;17.98;21.38;94726.47;5095788;28;20043;-56
2020/12/03 08:33:10;;;;;;;32.63;24.48;;;;;;;18.07;21.51;94727.16;5116687;28;20052;-54
2020/12/03 08:35:39;;;;;;;31.13;23.17;;;;;;;18.37;21.21;94738.41;5116874;28;20361;-59
2020/12/03 08:38:07;;;;;;;27.85;21.73;;;;;;;17.99;21.25;94725.38;5098547;28;20039;-55
2020/12/03 08:40:37;;;;;;;23.50;20.83;;;;;;;18.75;20.82;94727.63;5116490;28;20054;-56
2020/12/03 08:43:09;;;;;;;25.73;21.80;;;;;;;19.14;20.68;94728.09;5111789;28;20054;-58
2020/12/03 08:45:46;;;;;;;29.40;23.17;;;;;;;19.17;20.42;94732.75;5076072;28;20053;-57
2020/12/03 08:48:15;;;;;;;28.58;23.55;;;;;;;19.13;20.08;94731.84;5085605;28;20493;-58
2020/12/03 08:50:42;;;;;;;29.23;23.65;;;;;;;19.19;20.36;94727.88;5078456;28;20051;-55
2020/12/03 08:53:12;;;;;;;29.88;24.92;;;;;;;19.15;20.61;94719.06;5096124;28;20048;-55
2020/12/03 08:55:40;;;;;;;32.78;25.63;;;;;;;18.46;20.81;94731.91;5096102;28;20051;-58
2020/12/03 08:58:09;;;;;;;33.55;26.05;;;;;;;18.83;21.06;94721.47;5095641;28;20055;-56
2020/12/03 09:00:41;;;;;;;30.77;24.38;;;;;;;18.92;20.48;94711.53;5098379;28;20047;-59
2020/12/03 09:03:13;;;;;;;28.80;23.45;;;;;;;19.29;20.17;94714.19;5116403;28;20441;-55
2020/12/03 09:05:44;;;;;;;27.48;22.25;;;;;;;19.04;20.96;94722.16;5083568;28;20055;-60
2020/12/03 09:08:19;;;;;;;30.05;25.23;;;;;;;18.63;20.73;94715.13;5084434;28;20366;-57
2020/12/03 09:10:48;;;;;;;29.98;23.55;;;;;;;19.25;20.71;94721.25;5097440;28;20434;-57
2020/12/03 09:13:17;;;;;;;27.30;21.67;;;;;;;19.87;19.95;94710.25;5116230;28;20110;-58
2020/12/03 09:15:46;;;;;;;29.90;23.75;;;;;;;19.60;20.37;94705.69;5115139;28;20044;-57
2020/12/03 09:18:13;;;;;;;29.50;24.42;;;;;;;19.65;19.71;94708.88;5097782;28;20442;-56
2020/12/03 09:20:46;;;;;;;35.05;28.40;;;;;;;19.58;20.06;94716.63;5116144;28;20465;-55
2020/12/03 09:23:15;;;;;;;37.15;30.48;;;;;;;19.99;19.41;94704.13;5116369;28;20058;-57
2020/12/03 09:25:43;;;;;;;36.92;29.52;;;;;;;19.82;19.67;94699.88;5074999;28;20044;-58
2020/12/03 09:28:10;;;;;;;47.30;37.42;;;;;;;19.93;19.65;94694.88;5083134;28;20047;-58
2020/12/03 09:30:40;;;;;;;48.95;39.75;;;;;;;19.86;19.75;94700.00;5077698;28;20052;-59
2020/12/03 09:33:12;;;;;;;44.40;36.28;;;;;;;20.14;20.01;94695.47;5095546;28;20044;-59
2020/12/03 09:35:40;;;;;;;42.83;33.88;;;;;;;19.58;21.08;94690.09;5076975;28;20044;-59
2020/12/03 09:38:08;;;;;;;39.72;31.77;;;;;;;19.99;19.89;94693.53;5094070;28;20044;-58
2020/12/03 09:40:37;;;;;;;37.65;27.60;;;;;;;19.87;19.64;94685.63;5095413;28;20052;-58
2020/12/03 09:43:05;;;;;;;33.40;28.23;;;;;;;20.13;19.71;94683.31;5097986;28;20045;-58
2020/12/03 09:45:40;;;;;;;37.65;27.92;;;;;;;20.00;19.59;94689.75;5097795;28;20043;-58
2020/12/03 09:48:13;;;;;;;31.35;26.50;;;;;;;19.80;19.80;94688.06;5093959;28;20048;-58
2020/12/03 09:50:44;;;;;;;36.03;26.88;;;;;;;19.70;20.04;94679.47;5095267;28;20047;-56
2020/12/03 09:53:19;;;;;;;36.03;27.35;;;;;;;19.88;19.69;94676.53;5095289;28;20481;-57
2020/12/03 09:55:46;;;;;;;34.33;27.48;;;;;;;19.64;19.69;94680.03;5095311;28;20048;-56
2020/12/03 09:58:19;;;;;;;30.20;26.30;;;;;;;19.91;20.00;94670.56;5094962;28;20044;-59
2020/12/03 10:00:47;;;;;;;31.23;24.60;;;;;;;19.85;20.46;94666.63;5095200;28;20056;-57
2020/12/03 10:03:34;;;;;;;31.38;25.95;;;;;;;19.89;20.59;94662.16;5097865;28;20047;-56
2020/12/03 10:06:08;;;;;;;30.33;25.40;;;;;;;19.71;20.71;94662.44;5115356;28;20339;-59
2020/12/03 10:09:03;;;;;;;31.38;25.00;;;;;;;20.11;19.96;94659.00;5115272;28;20278;-59
2020/12/03 10:11:55;;;;;;;32.15;25.38;;;;;;;20.29;19.80;94654.91;5115178;28;20047;-57
2020/12/03 10:14:52;;;;;;;33.33;26.58;;;;;;;20.35;19.82;94649.38;5115476;28;20044;-56
2020/12/03 10:17:22;;;;;;;33.50;26.70;;;;;;;20.37;19.96;94645.25;5114972;28;20564;-59
2020/12/03 10:19:50;;;;;;;33.83;25.83;;;;;;;20.02;20.46;94637.88;5097575;28;20054;-57
2020/12/03 10:22:34;;;;;;;32.55;25.85;;;;;;;20.09;20.13;94637.31;5115706;28;20043;-56
2020/12/03 10:25:21;;;;;;;30.38;25.05;;;;;;;20.02;19.95;94645.09;5097500;28;20047;-59
2020/12/03 10:28:11;;;;;;;30.05;23.95;;;;;;;19.65;21.01;94637.28;5097065;28;20047;-55
2020/12/03 10:30:39;;;;;;;79.03;63.38;;;;;;;19.66;21.19;94638.03;5115197;28;20476;-57
2020/12/03 10:33:15;;;;;;;95.50;73.07;;;;;;;19.42;20.79;94628.25;5115272;28;20052;-56
2020/12/03 10:35:44;;;;;;;38.88;31.52;;;;;;;19.76;21.10;94621.63;5115227;28;20048;-56
2020/12/03 10:38:20;;;;;;;33.20;27.40;;;;;;;19.40;20.94;94620.63;5097148;28;20464;-57
2020/12/03 10:40:54;;;;;;;32.55;25.73;;;;;;;19.08;21.34;94619.69;5114852;28;20056;-56
2020/12/03 10:43:30;;;;;;;30.90;25.83;;;;;;;19.28;21.14;94612.72;5099576;28;20055;-55
2020/12/03 10:46:00;;;;;;;33.25;28.13;;;;;;;19.19;21.04;94614.69;5077169;28;20044;-55
2020/12/03 10:48:34;;;;;;;30.75;25.77;;;;;;;19.09;21.43;94615.94;5077111;28;20052;-56
2020/12/03 10:51:07;;;;;;;31.05;25.95;;;;;;;19.07;21.39;94617.38;5077264;28;20044;-60
2020/12/03 10:53:38;;;;;;;29.95;25.58;;;;;;;19.32;21.03;94607.50;5078742;28;20044;-59
2020/12/03 10:56:07;;;;;;;33.55;26.88;;;;;;;19.50;21.09;94603.47;5098542;28;20048;-61
2020/12/03 10:58:48;;;;;;;30.15;24.98;;;;;;;19.41;21.32;94597.53;5118709;28;20078;-56
2020/12/03 11:01:41;;;;;;;30.70;24.83;;;;;;;19.44;21.19;94596.88;5118724;28;20056;-56
2020/12/03 11:04:09;;;;;;;;;;;;;;;19.52;21.21;94588.03;5097920;28;20039;-57
2020/12/03 11:06:36;;;;;;;30.55;25.80;;;;;;;19.75;21.02;94592.81;5112710;28;19920;-56
2020/12/03 11:09:04;;;;;;;34.03;26.17;;;;;;;19.69;21.90;94589.63;5100616;28;20075;-57
2020/12/03 11:11:36;;;;;;;42.65;32.97;;;;;;;20.17;22.34;94588.63;5118223;28;20043;-59
2020/12/03 11:14:10;;;;;;;36.83;30.60;;;;;;;19.76;21.33;94589.81;5118480;28;20058;-58
2020/12/03 11:16:55;;;;;;;32.78;27.30;;;;;;;19.80;22.42;94587.28;5117215;28;20055;-56
2020/12/03 11:19:22;;;;;;;;;;;;;;;20.03;21.72;94578.41;5100546;28;20397;-59
2020/12/03 11:22:22;;;;;;;33.72;27.65;;;;;;;19.83;21.88;94578.63;5100689;28;19919;-57
2020/12/03 11:24:59;;;;;;;34.90;28.98;;;;;;;19.78;21.84;94586.81;5118436;28;20109;-57
2020/12/03 11:27:28;;;;;;;35.25;27.10;;;;;;;19.57;21.96;94579.84;5118176;28;20442;-57
2020/12/03 11:29:55;;;;;;;34.88;26.85;;;;;;;19.75;21.96;94572.34;5100063;28;20047;-57
2020/12/03 11:32:23;;;;;;;37.60;28.52;;;;;;;19.76;21.69;94567.81;5118191;28;20062;-59
2020/12/03 11:34:51;;;;;;;33.33;25.92;;;;;;;19.64;21.50;94566.00;5118041;28;20043;-57
2020/12/03 11:37:25;;;;;;;31.33;25.67;;;;;;;19.59;21.51;94559.06;5117887;28;20054;-57
2020/12/03 11:40:06;;;;;;;33.55;26.58;;;;;;;19.18;21.68;94551.44;5117712;28;20040;-55
2020/12/03 11:42:46;;;;;;;32.03;25.98;;;;;;;18.81;22.52;94546.22;5117617;28;20047;-56
2020/12/03 11:48:34;;;;;;;36.67;27.73;;;;;;;19.16;22.84;94540.41;5083098;28;20086;-57
2020/12/03 11:51:01;;;;;;;34.00;27.05;;;;;;;19.03;22.27;94539.69;5117733;28;20043;-56
2020/12/03 11:53:28;;;;;;;34.10;26.92;;;;;;;19.14;22.21;94539.97;5099831;28;20051;-56